Savannah, TN (38372)

2:47 AM CDT on April 28, 2015 (GMT -0500)
HardinCountyWeather.com | | Change Station
CLOSE
Current Station
Personal Weather Station
Location: Savannah, TN
Elevation: 443 ft
Nearby Weather Stations
Active Advisory: Flood Advisory

Elev 443 ft 35.26 °N, 88.22 °W | Updated 12 seconds ago

Clear
Clear
47.2 °F
Feels Like 47 °F
N
0.0
Wind Variable Wind from NE
Gusts 0.0 mph

Today
High -- | Low -- °F
--% Chance of Precip.
Yesterday
High -- | Low -- °F
Precip. -- in
6:05 AM 7:36 PM
Waxing Gibbous, 71% visible
Pressure 29.95 in
Visibility 10.0 miles
Clouds Clear
Windchill 47 °F
Dew Point 43 °F
Humidity 84%
Rainfall 0.00 in
Snow Depth Not available.
UV 0 out of 12
Pollen 9.20 out of 12
Air Quality Not available.
Flu Activity Sporadic
METAR KCRX 280735Z AUTO 05003KT 10SM CLR 10/04 A2995 RMK AO2

More Conditions Fewer Conditions

Pressure 29.95 in
Visibility 10.0 miles
Clouds Clear
Windchill 47 °F
Dew Point 43 °F
Humidity 84%
Rainfall 0.00 in
Snow Depth Not available.
UV 0 out of 12
Pollen 9.20 out of 12
Air Quality Not available.
Flu Activity Sporadic
METAR KCRX 280735Z AUTO 05003KT 10SM CLR 10/04 A2995 RMK AO2

More Conditions Fewer Conditions

10-Day Weather Forecast

Almanac

Astronomy

Apr. 28, 2015 Rise Set
Actual Time
Civil Twilight
Nautical Twilight
Astronomical Twilight
Moon
Length of Visible Light
Length of Day
Tomorrow will be .
, % of the Moon is Illuminated

Today's Extremes

State Highs State Lows

Community

WunderPhotos

Upload Photos

1,817,596 photos uploaded!

WunderBlogs® & News

Nearby

Air Quality

  Air Quality AQ Index Pollutant
Not available.

Snow Depth

Station Depth Elevation

Earthquake Activity

City Distance Mag. Time & Date
Minimum magnitude displayed is 2.5.

Coastal Water Temperatures

Place Temperature

Stations

Nearby Weather Stations

Station Location Temp. Windchill Dew Point Humidity Wind Precip. Elev Updated Type
                   
Flood Advisory
Statement as of 9:21 PM CDT on April 27, 2015

The Flood Advisory continues for
the Tennessee River at Savannah
* until Friday may 01.
* At 08 PM Monday the stage was 366.0 feet.
* Flood stage is 370.0 feet.
* Forecast... the river will rise to near 365.6 feet Tuesday April 28.
* At 366.0 feet... campsites along towboat Lane are flooding.


Lat... Lon 3548 8836 3548 8805 3527 8805 3514 8823
      3501 8823 3501 8838